Terminal Aerodrome Forecast
Issued by NWS

Home | Current Version | Previous Version | Text Only | Print | Product List | Glossary On
Versions: 1 2 3 4 5 6 7 8 9 10 11 12 13 14 15 16 17 18 19 20 21 22 23
796
FTUS43 KILX 310520
TAFDEC
TAF
KDEC 310520Z 3106/0106 VRB04KT P6SM SCT035
     FM310800 00000KT 3SM BR SCT035
     FM311100 00000KT 2SM BR FEW025 SCT035
     FM311400 VRB03KT P6SM SCT035
     FM010000 VRB03KT P6SM SCT040=

USA.gov is the U.S. government's official web portal to all federal, state and local government web resources and services.